createdAt,value
2018-06-15T00:04:20.034Z,14.30
2018-06-15T00:09:23.140Z,14.38
2018-06-15T00:14:26.250Z,14.45
2018-06-15T00:19:29.510Z,14.99
2018-06-15T00:24:32.740Z,15.51
2018-06-15T00:29:35.980Z,15.80
2018-06-15T00:34:39.357Z,15.94
2018-06-15T00:39:42.501Z,16.18
2018-06-15T00:44:45.628Z,16.13
2018-06-15T00:49:48.820Z,16.17
2018-06-15T00:54:52.079Z,16.14
2018-06-15T00:59:55.170Z,16.06
2018-06-15T01:04:58.307Z,16.02
2018-06-15T01:10:01.583Z,16.07
2018-06-15T01:15:05.006Z,16.14
2018-06-15T01:20:08.156Z,16.12
2018-06-15T01:25:11.331Z,16.09
2018-06-15T01:30:14.543Z,16.09
2018-06-15T01:35:17.828Z,15.99
2018-06-15T01:40:22.105Z,16.03
2018-06-15T01:45:25.391Z,16.01
2018-06-15T01:50:28.515Z,16.05
2018-06-15T01:55:31.689Z,15.95
2018-06-15T02:00:34.961Z,15.96
2018-06-15T02:05:38.071Z,15.94
2018-06-15T02:10:41.232Z,15.99
2018-06-15T02:15:45.913Z,15.95
2018-06-15T02:20:49.020Z,15.93
2018-06-15T02:25:52.244Z,15.96
2018-06-15T02:30:55.319Z,16.01
2018-06-15T02:35:58.537Z,15.98
2018-06-15T02:41:01.672Z,15.92
2018-06-15T02:46:04.879Z,15.87
2018-06-15T02:51:08.066Z,15.87
2018-06-15T02:56:11.670Z,15.94
2018-06-15T03:01:14.818Z,15.88
2018-06-15T03:06:17.953Z,15.99
2018-06-15T03:11:21.065Z,16.04
2018-06-15T03:16:24.189Z,16.03
2018-06-15T03:21:27.425Z,16.02
2018-06-15T03:26:31.213Z,15.94
2018-06-15T03:31:34.470Z,15.93
2018-06-15T03:36:37.605Z,15.93
2018-06-15T03:41:40.819Z,15.96
2018-06-15T03:46:44.340Z,16.05
2018-06-15T03:51:54.446Z,16.26
2018-06-15T03:56:58.381Z,16.51
2018-06-15T04:02:01.590Z,16.71
2018-06-15T04:07:04.944Z,16.81
2018-06-15T04:12:08.194Z,16.83
2018-06-15T04:17:11.663Z,17.14
2018-06-15T04:22:14.778Z,17.65
2018-06-15T04:27:20.940Z,17.78
2018-06-15T04:32:26.506Z,17.85
2018-06-15T04:37:32.620Z,17.79
2018-06-15T04:42:38.665Z,18.04
2018-06-15T04:47:42.233Z,18.41
2018-06-15T04:52:45.311Z,18.63
2018-06-15T04:57:48.428Z,18.64
2018-06-15T05:02:52.088Z,18.63
2018-06-15T05:07:56.537Z,19.01
2018-06-15T05:12:59.955Z,18.77
2018-06-15T05:18:03.141Z,18.34
2018-06-15T05:23:08.564Z,18.33
2018-06-15T05:28:12.296Z,18.37
2018-06-15T05:33:15.483Z,18.60
2018-06-15T05:38:18.615Z,18.63
2018-06-15T05:43:21.787Z,18.89
2018-06-15T05:48:24.970Z,18.91
2018-06-15T05:53:29.234Z,18.98
2018-06-15T05:58:32.558Z,19.29
2018-06-15T06:03:35.791Z,18.91
2018-06-15T06:08:38.996Z,19.30
2018-06-15T06:13:42.457Z,19.34
2018-06-15T06:18:45.568Z,18.95
2018-06-15T06:23:48.717Z,19.43
2018-06-15T06:28:52.390Z,19.61
2018-06-15T06:33:55.517Z,19.75
2018-06-15T06:38:58.708Z,19.69
2018-06-15T06:44:01.961Z,19.66
2018-06-15T06:49:05.178Z,19.55
2018-06-15T06:54:09.040Z,19.63
2018-06-15T06:59:12.147Z,19.93
2018-06-15T07:04:15.275Z,19.96
2018-06-15T07:09:18.450Z,20.30
2018-06-15T07:14:21.507Z,20.34
2018-06-15T07:19:26.858Z,20.32
2018-06-15T07:24:30.190Z,19.97
2018-06-15T07:29:33.463Z,20.37
2018-06-15T07:34:36.663Z,20.93
2018-06-15T07:39:39.725Z,21.38
2018-06-15T07:44:43.042Z,22.02
2018-06-15T07:49:46.130Z,21.74
2018-06-15T07:54:50.010Z,22.80
2018-06-15T07:59:53.130Z,22.63
2018-06-15T08:04:56.313Z,22.80
2018-06-15T08:09:59.422Z,23.06
2018-06-15T08:15:02.590Z,22.79
2018-06-15T08:20:05.872Z,22.97
2018-06-15T08:25:08.960Z,22.97
2018-06-15T08:30:12.237Z,23.71
2018-06-15T08:35:15.354Z,23.50
2018-06-15T08:40:19.053Z,23.17
2018-06-15T08:45:22.232Z,23.93
2018-06-15T08:50:25.508Z,23.52
2018-06-15T08:55:28.699Z,24.16
2018-06-15T09:00:31.858Z,25.08
2018-06-15T09:05:35.077Z,26.03
2018-06-15T09:10:38.231Z,26.92
2018-06-15T09:15:41.489Z,25.67
2018-06-15T09:20:45.030Z,26.79
2018-06-15T09:25:48.131Z,26.00
2018-06-15T09:30:51.209Z,25.49
2018-06-15T09:35:54.604Z,24.89
2018-06-15T09:40:57.722Z,25.62
2018-06-15T09:46:00.839Z,25.85
2018-06-15T09:51:04.205Z,26.53
2018-06-15T09:56:07.393Z,28.12
2018-06-15T10:01:10.859Z,28.56
2018-06-15T10:06:14.110Z,27.71
2018-06-15T10:11:17.046Z,26.31
2018-06-15T10:16:20.209Z,26.56
2018-06-15T10:21:23.293Z,27.27
2018-06-15T10:26:26.549Z,28.20
2018-06-15T10:31:29.773Z,28.65
2018-06-15T10:36:32.949Z,26.85
2018-06-15T10:41:36.162Z,25.94
2018-06-15T10:46:39.398Z,26.03
2018-06-15T10:51:42.495Z,27.08
2018-06-15T10:56:45.732Z,28.48
2018-06-15T11:01:49.128Z,27.00
2018-06-15T11:06:52.230Z,28.30
2018-06-15T11:11:55.413Z,26.53
2018-06-15T11:17:01.497Z,26.89
2018-06-15T11:22:04.673Z,27.39
2018-06-15T11:27:08.238Z,26.74
2018-06-15T11:32:11.354Z,25.95
2018-06-15T11:37:14.457Z,25.77
2018-06-15T11:42:17.576Z,27.07
2018-06-15T11:47:20.761Z,27.86
2018-06-15T11:52:23.985Z,27.05
2018-06-15T11:57:28.116Z,27.71
2018-06-15T12:02:31.286Z,28.26
2018-06-15T12:07:34.733Z,29.22
2018-06-15T12:12:37.874Z,29.20
2018-06-15T12:17:41.121Z,26.84
2018-06-15T12:22:44.676Z,26.68
2018-06-15T12:27:47.782Z,26.73
2018-06-15T12:32:51.000Z,27.38
2018-06-15T12:37:54.190Z,27.73
2018-06-15T12:42:57.275Z,27.90
2018-06-15T12:48:00.430Z,27.29
2018-06-15T12:53:04.144Z,26.76
2018-06-15T12:58:07.327Z,26.57
2018-06-15T13:03:11.337Z,26.67
2018-06-15T13:08:16.628Z,26.17
2018-06-15T13:13:19.816Z,27.12
2018-06-15T13:18:22.934Z,28.97
2018-06-15T13:23:26.213Z,29.72
2018-06-15T13:28:29.369Z,28.24
2018-06-15T13:33:32.510Z,27.14
2018-06-15T13:38:36.027Z,26.70
2018-06-15T13:43:39.260Z,26.59
2018-06-15T13:48:42.478Z,26.53
2018-06-15T13:53:45.731Z,26.30
2018-06-15T13:58:48.824Z,26.65
2018-06-15T14:03:52.006Z,27.27
2018-06-15T14:08:55.231Z,27.64
2018-06-15T14:13:58.772Z,26.06
2018-06-15T14:19:02.010Z,25.26
2018-06-15T14:24:05.148Z,24.51
2018-06-15T14:29:08.362Z,24.12
2018-06-15T14:34:11.620Z,23.91
2018-06-15T14:39:14.749Z,23.56
2018-06-15T14:44:17.978Z,23.41
2018-06-15T14:49:21.230Z,23.39
2018-06-15T14:54:24.439Z,23.41
2018-06-15T14:59:28.285Z,23.62
2018-06-15T15:04:31.548Z,23.49
2018-06-15T15:09:34.847Z,23.42
2018-06-15T15:14:38.315Z,23.36
2018-06-15T15:19:41.536Z,23.29
2018-06-15T15:24:45.511Z,23.41
2018-06-15T15:29:51.032Z,23.40
2018-06-15T15:34:56.775Z,23.33
2018-06-15T15:40:01.349Z,23.18
2018-06-15T15:45:05.204Z,23.12
2018-06-15T15:50:09.797Z,23.06
2018-06-15T15:55:14.129Z,23.04
2018-06-15T16:00:17.758Z,22.87
2018-06-15T16:05:22.379Z,22.84
2018-06-15T16:10:25.474Z,22.85
2018-06-15T16:15:28.886Z,22.87
2018-06-15T16:20:32.006Z,23.07
2018-06-15T16:25:35.472Z,23.19
2018-06-15T16:30:38.958Z,23.24
2018-06-15T16:35:42.094Z,23.21
2018-06-15T16:40:45.291Z,23.21
2018-06-15T16:45:48.448Z,23.07
2018-06-15T16:50:51.579Z,23.17
2018-06-15T16:55:54.690Z,23.19
2018-06-15T17:00:57.821Z,23.23
2018-06-15T17:06:01.239Z,23.02
2018-06-15T17:11:05.464Z,22.76
2018-06-15T17:16:09.841Z,22.67
2018-06-15T17:21:12.932Z,22.59
2018-06-15T17:26:16.046Z,22.48
2018-06-15T17:31:19.233Z,22.38
2018-06-15T17:36:22.306Z,22.41
2018-06-15T17:41:25.382Z,22.35
2018-06-15T17:46:28.536Z,22.29
2018-06-15T17:51:31.663Z,22.24
2018-06-15T17:56:34.925Z,22.28
2018-06-15T18:01:38.330Z,22.33
2018-06-15T18:06:41.628Z,22.53
2018-06-15T18:11:52.228Z,22.62
2018-06-15T18:16:55.746Z,22.59
2018-06-15T18:22:14.630Z,22.46
2018-06-15T18:27:19.207Z,22.27
2018-06-15T18:32:24.265Z,22.00
2018-06-15T18:37:28.302Z,21.91
2018-06-15T18:42:33.472Z,21.81
2018-06-15T18:47:38.434Z,21.60
2018-06-15T18:52:41.656Z,21.41
2018-06-15T18:57:45.789Z,21.30
2018-06-15T19:02:52.167Z,21.07
2018-06-15T19:07:57.226Z,21.05
2018-06-15T19:13:02.820Z,20.89
2018-06-15T19:18:19.757Z,20.76
2018-06-15T19:23:23.555Z,20.58
2018-06-15T19:28:26.964Z,20.43
2018-06-15T19:33:30.531Z,20.31
2018-06-15T19:38:34.563Z,20.18
2018-06-15T19:43:52.936Z,20.07
2018-06-15T19:48:56.893Z,20.02
2018-06-15T19:54:00.040Z,19.93
2018-06-15T19:59:03.472Z,19.80
2018-06-15T20:04:06.610Z,19.75
2018-06-15T20:09:09.772Z,19.66
2018-06-15T20:14:12.967Z,19.55
2018-06-15T20:19:16.039Z,19.42
2018-06-15T20:24:19.150Z,19.31
2018-06-15T20:29:22.376Z,19.19
2018-06-15T20:34:25.495Z,19.03
2018-06-15T20:39:28.597Z,18.91
2018-06-15T20:44:32.088Z,18.78
2018-06-15T20:49:35.400Z,18.69
2018-06-15T20:54:38.649Z,18.62
2018-06-15T20:59:41.803Z,18.59
2018-06-15T21:04:44.894Z,18.54
2018-06-15T21:09:48.016Z,18.51
2018-06-15T21:14:51.116Z,18.46
2018-06-15T21:19:54.273Z,18.42
2018-06-15T21:24:58.297Z,18.41
2018-06-15T21:30:01.511Z,18.31
2018-06-15T21:35:05.691Z,18.23
2018-06-15T21:40:09.223Z,18.18
2018-06-15T21:45:13.252Z,18.18
2018-06-15T21:50:18.429Z,18.15
2018-06-15T21:55:22.817Z,18.11
2018-06-15T22:00:25.940Z,18.07
2018-06-15T22:05:29.192Z,18.09
2018-06-15T22:10:32.933Z,18.09
2018-06-15T22:15:37.386Z,18.00
2018-06-15T22:20:40.689Z,17.93
2018-06-15T22:25:43.840Z,17.88
2018-06-15T22:30:47.276Z,17.68
2018-06-15T22:35:50.514Z,17.57
2018-06-15T22:40:53.567Z,17.53
2018-06-15T22:45:56.680Z,17.53
2018-06-15T22:50:59.805Z,17.57
2018-06-15T22:56:02.962Z,17.57
2018-06-15T23:01:06.116Z,17.53
2018-06-15T23:06:09.641Z,17.51
2018-06-15T23:11:12.777Z,17.46
2018-06-15T23:16:15.887Z,17.39
2018-06-15T23:21:19.087Z,17.32
2018-06-15T23:26:22.262Z,17.26
2018-06-15T23:31:25.830Z,17.26
2018-06-15T23:36:29.193Z,17.32
2018-06-15T23:41:32.362Z,17.29
2018-06-15T23:46:35.585Z,17.17
2018-06-15T23:51:38.969Z,17.09
2018-06-15T23:56:42.951Z,17.01
